Time;durP1;ratioP1;P1;durP2;ratioP2;P2;SDS_P1;SDS_P2;PMS_P1;PMS_P2;Temp;Humidity;BMP_temperature;BMP_pressure;BME280_temperature;BME280_humidity;BME280_pressure;Samples;Min_cycle;Max_cycle;Signal;HPM_P1;HPM_P2
2021/10/10 00:00:27;;;;;;;;;;;;;;;-144.99;76.25;52317.66;5004251;28;19977;-62
2021/10/10 00:02:54;;;;;;;;;;;;;;;-144.99;76.02;52329.88;5007402;28;20001;-61
2021/10/10 00:05:20;;;;;;;;;;;;;;;-144.99;76.51;52293.19;5006359;28;20374;-62
2021/10/10 00:07:46;;;;;;;;;;;;;;;-144.99;76.48;52374.72;5004169;28;19985;-62
2021/10/10 00:10:14;;;;;;;;;;;;;;;-144.99;76.40;52329.88;5009730;28;20443;-61
2021/10/10 00:12:40;;;;;;;;;;;;;;;-144.99;76.71;52360.44;5006993;28;20009;-63
2021/10/10 00:15:08;;;;;;;;;;;;;;;-144.99;77.27;52350.25;5005996;28;20390;-63
2021/10/10 00:17:35;;;;;;;;;;;;;;;-144.99;77.40;52374.72;5000372;28;19978;-62
2021/10/10 00:20:02;;;;;;;;;;;;;;;-144.99;77.68;52374.72;5004072;28;19984;-62
2021/10/10 00:22:28;;;;;;;;;;;;;;;-144.99;77.49;52325.81;5004445;28;19993;-62
2021/10/10 00:24:54;;;;;;;;;;;;;;;-144.99;78.10;52313.56;5003919;28;20181;-63
2021/10/10 00:27:21;;;;;;;;;;;;;;;-144.99;78.21;52305.41;5002729;28;19978;-62
2021/10/10 00:29:49;;;;;;;;;;;;;;;-144.99;78.22;52354.34;5004653;28;19985;-61
2021/10/10 00:32:15;;;;;;;;;;;;;;;-144.99;78.11;52350.25;5004033;28;20076;-62
2021/10/10 00:34:43;;;;;;;;;;;;;;;-144.99;78.02;52352.28;5004683;28;20000;-62
2021/10/10 00:37:09;;;;;;;;;;;;;;;-144.99;78.22;52370.63;5003472;28;19989;-61
2021/10/10 00:39:36;;;;;;;;;;;;;;;-144.99;78.50;52313.56;5004095;28;19982;-62
2021/10/10 00:42:02;;;;;;;;;;;;;;;-144.99;78.56;52344.16;5001832;28;20005;-62
2021/10/10 00:44:28;;;;;;;;;;;;;;;-144.99;78.92;52344.16;5003013;28;20442;-62
2021/10/10 00:46:55;;;;;;;;;;;;;;;-144.99;79.07;52366.56;5003680;28;19977;-62
2021/10/10 00:49:21;;;;;;;;;;;;;;;-144.99;79.60;52338.03;5003331;28;19986;-62
2021/10/10 00:51:49;;;;;;;;;;;;;;;-144.99;79.69;52358.41;5002354;28;19998;-62
2021/10/10 00:54:17;;;;;;;;;;;;;;;-144.99;79.88;52350.25;5002892;28;20367;-63
2021/10/10 00:56:44;;;;;;;;;;;;;;;-144.99;80.11;52329.88;5001665;28;19977;-63
2021/10/10 00:59:13;;;;;;;;;;;;;;;-144.99;80.24;52366.56;5001821;28;19978;-63
2021/10/10 01:01:39;;;;;;;;;;;;;;;-144.99;80.20;52338.03;5001747;28;20000;-63
2021/10/10 01:04:06;;;;;;;;;;;;;;;-144.99;80.51;52338.03;5001585;28;19985;-62
2021/10/10 01:06:32;;;;;;;;;;;;;;;-144.99;80.59;52342.09;5002269;28;19985;-61
2021/10/10 01:09:00;;;;;;;;;;;;;;;-144.99;80.94;52350.25;5005772;28;20004;-59
2021/10/10 01:11:27;;;;;;;;;;;;;;;-144.99;80.94;52354.34;5010999;28;19993;-59
2021/10/10 01:13:53;;;;;;;;;;;;;;;-144.99;80.99;52342.09;5001641;28;20136;-59
2021/10/10 01:16:20;;;;;;;;;;;;;;;-144.99;81.47;52331.91;5001640;28;19953;-61
2021/10/10 01:18:46;;;;;;;;;;;;;;;-144.99;81.27;52338.03;5003165;28;20386;-61
2021/10/10 01:21:14;;;;;;;;;;;;;;;-144.99;81.33;52327.84;5001643;28;19974;-59
2021/10/10 01:23:40;;;;;;;;;;;;;;;-144.99;81.57;52356.38;5001010;28;19978;-60
2021/10/10 01:26:06;;;;;;;;;;;;;;;-144.99;81.62;52323.75;5002076;28;19986;-59
2021/10/10 01:28:33;;;;;;;;;;;;;;;-144.99;81.75;52350.25;5001051;28;19981;-59
2021/10/10 01:30:59;;;;;;;;;;;;;;;-144.99;81.96;52338.03;5001652;28;19974;-60
2021/10/10 01:33:26;;;;;;;;;;;;;;;-144.99;82.47;52333.94;5002270;28;20005;-59
2021/10/10 01:35:52;;;;;;;;;;;;;;;-144.99;82.57;52313.56;5002121;28;20430;-59
2021/10/10 01:38:20;;;;;;;;;;;;;;;-144.99;82.90;52342.09;5001505;28;20513;-59
2021/10/10 01:40:46;;;;;;;;;;;;;;;-144.99;83.73;52350.25;5002879;28;19986;-59
2021/10/10 01:43:15;;;;;;;;;;;;;;;-144.99;83.90;52329.88;5002592;28;21634;-59
2021/10/10 01:45:41;;;;;;;;;;;;;;;-144.99;84.15;52342.09;5002106;28;19978;-59
2021/10/10 01:48:08;;;;;;;;;;;;;;;-144.99;84.31;52342.09;5002708;28;19974;-59
2021/10/10 01:50:35;;;;;;;;;;;;;;;-144.99;84.63;52329.88;4998947;28;19982;-59
2021/10/10 01:53:02;;;;;;;;;;;;;;;-144.99;84.97;52356.38;5003181;28;19993;-59
2021/10/10 01:55:29;;;;;;;;;;;;;;;-144.99;85.08;52358.41;5003444;28;19989;-59
2021/10/10 01:57:56;;;;;;;;;;;;;;;-144.99;85.81;52325.81;5002174;28;19982;-59
2021/10/10 02:00:22;;;;;;;;;;;;;;;-144.99;85.89;52354.34;5002052;28;20454;-62
2021/10/10 02:02:48;;;;;;;;;;;;;;;-144.99;86.44;52342.09;5002907;28;20012;-62
2021/10/10 02:05:15;;;;;;;;;;;;;;;-144.99;86.46;52321.72;5001633;28;19974;-63
2021/10/10 02:07:41;;;;;;;;;;;;;;;-144.99;86.71;52348.22;5002085;28;19974;-63
2021/10/10 02:10:09;;;;;;;;;;;;;;;-144.99;86.64;52360.44;5003560;28;20321;-61
2021/10/10 02:12:37;;;;;;;;;;;;;;;-144.99;86.54;52346.19;5000659;28;20025;-60
2021/10/10 02:15:05;;;;;;;;;;;;;;;-144.99;86.39;52333.94;5000183;28;19990;-61
2021/10/10 02:17:31;;;;;;;;;;;;;;;-144.99;86.49;52325.81;5001794;28;19974;-63
2021/10/10 02:19:58;;;;;;;;;;;;;;;-144.99;86.41;52321.72;5002164;28;19993;-61
2021/10/10 02:22:24;;;;;;;;;;;;;;;-144.99;87.33;52325.81;4999970;28;19997;-61
2021/10/10 02:24:50;;;;;;;;;;;;;;;-144.99;87.50;52362.50;5001254;28;19978;-60
2021/10/10 02:27:17;;;;;;;;;;;;;;;-144.99;87.72;52321.72;5001448;28;20288;-61
2021/10/10 02:29:44;;;;;;;;;;;;;;;-144.99;87.76;52350.25;5001392;28;20005;-60
2021/10/10 02:32:11;;;;;;;;;;;;;;;-144.99;88.05;52331.91;5001082;28;19997;-61
2021/10/10 02:34:37;;;;;;;;;;;;;;;-144.99;88.28;52364.53;5006097;28;20403;-60
2021/10/10 02:37:03;;;;;;;;;;;;;;;-144.99;88.28;52329.88;4659856;28;10000062;-61
2021/10/10 02:39:30;;;;;;;;;;;;;;;-144.99;88.51;52333.94;5004847;28;19986;-61
2021/10/10 02:41:56;;;;;;;;;;;;;;;-144.99;88.62;52358.41;5003965;28;20009;-62
2021/10/10 02:44:22;;;;;;;;;;;;;;;-144.99;88.79;52289.13;5004911;28;20538;-61
2021/10/10 02:46:50;;;;;;;;;;;;;;;-144.99;88.99;52325.81;5005209;28;19978;-60
2021/10/10 02:49:16;;;;;;;;;;;;;;;-144.99;89.09;52354.34;5003834;28;19974;-61
2021/10/10 02:51:43;;;;;;;;;;;;;;;-144.99;89.00;52358.41;5003177;28;20001;-59
2021/10/10 02:54:09;;;;;;;;;;;;;;;-144.99;88.85;52321.72;5008849;28;19990;-58
2021/10/10 02:56:35;;;;;;;;;;;;;;;-144.99;88.92;52360.44;5008099;28;19989;-57
2021/10/10 02:59:02;;;;;;;;;;;;;;;-144.99;88.65;52329.88;5007919;28;19993;-59
2021/10/10 03:01:28;;;;;;;;;;;;;;;-144.99;89.17;52364.53;5006840;28;20000;-58
2021/10/10 03:03:55;;;;;;;;;;;;;;;-144.99;89.16;52340.06;5005440;28;19978;-58
2021/10/10 03:06:22;;;;;;;;;;;;;;;-144.99;89.25;52329.88;5007249;28;19974;-60
2021/10/10 03:08:48;;;;;;;;;;;;;;;-144.99;89.33;52344.16;5047158;22;20103;-64
2021/10/10 03:11:15;;;;;;;;;;;;;;;-144.99;89.72;52378.78;5061486;28;20348;-64
2021/10/10 03:13:41;;;;;;;;;;;;;;;-144.99;89.37;52374.72;5057845;28;20352;-64
2021/10/10 03:16:07;;;;;;;;;;;;;;;-144.99;89.13;52338.03;5058257;28;19973;-62
2021/10/10 03:18:34;;;;;;;;;;;;;;;-144.99;89.36;52346.19;5057325;28;19978;-62
2021/10/10 03:21:01;;;;;;;;;;;;;;;-144.99;89.52;52340.06;5056273;28;19977;-60
2021/10/10 03:23:28;;;;;;;;;;;;;;;-144.99;89.84;52356.38;5056404;28;19961;-60
2021/10/10 03:25:56;;;;;;;;;;;;;;;-144.99;90.09;52338.03;5052548;28;20437;-62
2021/10/10 03:28:22;;;;;;;;;;;;;;;-144.99;90.04;52366.56;5060444;28;20349;-62
2021/10/10 03:30:50;;;;;;;;;;;;;;;-144.99;89.96;52376.75;5054709;28;19977;-63
2021/10/10 03:33:17;;;;;;;;;;;;;;;-144.99;90.39;52368.59;5054245;28;20024;-63
2021/10/10 03:35:43;;;;;;;;;;;;;;;-144.99;90.68;52362.50;5058164;28;20005;-61
2021/10/10 03:38:11;;;;;;;;;;;;;;;-144.99;90.80;52358.41;5059376;28;19981;-61
2021/10/10 03:40:37;;;;;;;;;;;;;;;-144.99;91.54;52346.19;5056780;28;20282;-61
2021/10/10 03:43:04;;;;;;;;;;;;;;;-144.99;92.10;52329.88;5052293;28;19993;-61
2021/10/10 03:45:30;;;;;;;;;;;;;;;-144.99;91.99;52297.25;5051989;28;19984;-60
2021/10/10 03:47:56;;;;;;;;;;;;;;;-144.99;92.08;52309.50;5056179;28;19992;-61
2021/10/10 03:50:23;;;;;;;;;;;;;;;-144.99;92.24;52360.44;5058197;28;20358;-60
2021/10/10 03:52:49;;;;;;;;;;;;;;;-144.99;92.09;52362.50;5054461;28;19997;-60
2021/10/10 03:58:04;;;;;;;;;;;;;;;-144.99;92.45;52321.72;5052480;28;19989;-57
2021/10/10 04:00:31;;;;;;;;;;;;;;;-144.99;92.24;52423.63;5060373;28;20417;-58
2021/10/10 04:02:59;;;;;;;;;;;;;;;-144.99;92.20;52354.34;5051514;28;20364;-59
2021/10/10 04:05:37;;;;;;;;;;;;;;;-144.99;92.32;52360.44;5055790;28;19977;-59
2021/10/10 04:08:03;;;;;;;;;;;;;;;-144.99;92.46;52333.94;5052135;28;19992;-58
2021/10/10 04:10:31;;;;;;;;;;;;;;;-144.99;92.33;52338.03;5055537;28;19984;-59
2021/10/10 04:12:57;;;;;;;;;;;;;;;-144.99;92.54;52354.34;5060081;28;20363;-60
2021/10/10 04:15:24;;;;;;;;;;;;;;;-144.99;92.89;52374.72;5057825;28;19999;-59
2021/10/10 04:17:50;;;;;;;;;;;;;;;-144.99;92.64;52342.09;5057398;28;19984;-58
2021/10/10 04:20:17;;;;;;;;;;;;;;;-144.99;92.51;52358.41;5060353;28;19977;-59
2021/10/10 04:22:44;;;;;;;;;;;;;;;-144.99;93.31;52358.41;5060748;28;19997;-59
2021/10/10 04:25:11;;;;;;;;;;;;;;;-144.99;93.59;52370.63;5048937;28;20442;-59
2021/10/10 04:27:39;;;;;;;;;;;;;;;-144.99;94.23;52366.56;5056729;28;19977;-61
2021/10/10 04:30:07;;;;;;;;;;;;;;;-144.99;94.69;52362.50;5055145;28;19980;-61
2021/10/10 04:32:34;;;;;;;;;;;;;;;-144.99;94.57;52378.78;5058865;28;20016;-61
2021/10/10 04:35:00;;;;;;;;;;;;;;;-144.99;94.75;52352.28;5053087;28;19990;-61
2021/10/10 04:37:27;;;;;;;;;;;;;;;-144.99;95.11;52366.56;5044161;28;19977;-60
2021/10/10 04:39:53;;;;;;;;;;;;;;;-144.99;95.42;52378.78;5054791;28;19987;-60
2021/10/10 04:42:19;;;;;;;;;;;;;;;-144.99;95.03;52399.19;5047944;28;20489;-60
2021/10/10 04:44:47;;;;;;;;;;;;;;;-144.99;94.72;52333.94;5049790;28;20349;-61
2021/10/10 04:47:13;;;;;;;;;;;;;;;-144.99;94.76;52391.03;5059990;28;19973;-60
2021/10/10 04:49:40;;;;;;;;;;;;;;;-144.99;94.81;52376.75;5056140;28;19973;-62
2021/10/10 04:52:06;;;;;;;;;;;;;;;-144.99;94.46;52358.41;5053561;28;19989;-61
2021/10/10 04:54:34;;;;;;;;;;;;;;;-144.99;94.25;52362.50;5047307;28;19997;-62
2021/10/10 04:57:00;;;;;;;;;;;;;;;-144.99;94.25;52325.81;5057821;28;19980;-61
2021/10/10 04:59:27;;;;;;;;;;;;;;;-144.99;94.18;52395.09;5056135;28;19973;-62
2021/10/10 05:01:54;;;;;;;;;;;;;;;-144.99;93.92;52342.09;5051758;28;20198;-62
2021/10/10 05:04:21;;;;;;;;;;;;;;;-144.99;93.77;52388.97;5052247;28;19981;-61
2021/10/10 05:06:47;;;;;;;;;;;;;;;-144.99;93.53;52329.88;5057574;28;19984;-61
2021/10/10 05:09:13;;;;;;;;;;;;;;;-144.99;93.45;52348.22;5041918;28;19985;-60
2021/10/10 05:11:40;;;;;;;;;;;;;;;-144.99;93.09;52350.25;5055614;28;19993;-60
2021/10/10 05:14:06;;;;;;;;;;;;;;;-144.99;92.86;52407.31;5050105;28;19973;-60
2021/10/10 05:16:32;;;;;;;;;;;;;;;-144.99;92.49;52368.59;5049723;28;20001;-61
2021/10/10 05:19:00;;;;;;;;;;;;;;;-144.99;92.71;52370.63;5049006;28;20072;-61
2021/10/10 05:21:26;;;;;;;;;;;;;;;-144.99;92.73;52344.16;5052794;28;20414;-62
2021/10/10 05:23:53;;;;;;;;;;;;;;;-144.99;92.99;52386.94;5052223;28;20314;-62
2021/10/10 05:26:19;;;;;;;;;;;;;;;-144.99;93.19;52352.28;5055208;28;20414;-59
2021/10/10 05:28:45;;;;;;;;;;;;;;;-144.99;92.96;52372.69;5050463;28;19977;-59
2021/10/10 05:31:12;;;;;;;;;;;;;;;-144.99;93.24;52360.44;5052262;28;19977;-61
2021/10/10 05:33:38;;;;;;;;;;;;;;;-144.99;92.86;52374.72;5044273;28;20438;-60
2021/10/10 05:36:06;;;;;;;;;;;;;;;-144.99;92.89;52342.09;5044625;28;20349;-60
2021/10/10 05:38:33;;;;;;;;;;;;;;;-144.99;93.47;52346.19;5048998;28;19977;-60
2021/10/10 05:41:01;;;;;;;;;;;;;;;-144.99;93.09;52368.59;5049614;28;19973;-61
2021/10/10 05:43:27;;;;;;;;;;;;;;;-144.99;92.98;52391.03;5049734;28;20078;-62
2021/10/10 05:45:53;;;;;;;;;;;;;;;-144.99;92.86;52358.41;5050750;28;19977;-62
2021/10/10 05:48:20;;;;;;;;;;;;;;;-144.99;92.65;52358.41;5048614;28;20000;-65
2021/10/10 05:50:46;;;;;;;;;;;;;;;-144.99;92.47;52362.50;5043978;28;19984;-66
2021/10/10 05:53:14;;;;;;;;;;;;;;;-144.99;92.42;52372.69;5043294;28;19992;-65
2021/10/10 05:55:41;;;;;;;;;;;;;;;-144.99;92.17;52338.03;5052313;28;19989;-66
2021/10/10 05:58:09;;;;;;;;;;;;;;;-144.99;92.47;52350.25;5050345;28;20362;-64
2021/10/10 06:00:35;;;;;;;;;;;;;;;-144.99;92.28;52338.03;5047571;28;20028;-64
2021/10/10 06:03:06;;;;;;;;;;;;;;;-144.99;92.03;52350.25;5046156;28;20376;-59
2021/10/10 06:05:32;;;;;;;;;;;;;;;-144.99;91.91;52317.66;5048888;28;19985;-61
2021/10/10 06:07:59;;;;;;;;;;;;;;;-144.99;91.35;52403.25;5053105;28;19973;-62
2021/10/10 06:10:26;;;;;;;;;;;;;;;-144.99;90.79;52364.53;5056619;28;19980;-61
2021/10/10 06:12:53;;;;;;;;;;;;;;;-144.99;90.01;52346.19;5059455;28;19993;-60
2021/10/10 06:15:19;;;;;;;;;;;;;;;-144.99;89.29;52342.09;5060626;28;20009;-62
2021/10/10 06:17:46;;;;;;;;;;;;;;;-144.99;89.31;52342.09;5057969;28;19977;-61
2021/10/10 06:20:12;;;;;;;;;;;;;;;-144.99;88.86;52321.72;5057698;28;19999;-62
2021/10/10 06:22:39;;;;;;;;;;;;;;;-144.99;87.85;52340.06;5052247;28;19997;-61
2021/10/10 06:25:05;;;;;;;;;;;;;;;-144.99;87.26;52321.72;5054123;28;19973;-61
2021/10/10 06:27:33;;;;;;;;;;;;;;;-144.99;86.46;52297.25;5056410;28;20639;-62
2021/10/10 06:29:59;;;;;;;;;;;;;;;-144.99;85.05;52276.88;5065894;28;19988;-62
2021/10/10 06:32:28;;;;;;;;;;;;;;;-144.99;83.44;52358.41;5061435;28;20030;-62
2021/10/10 06:34:55;;;;;;;;;;;;;;;-144.99;83.25;52329.88;5059919;28;19984;-62
2021/10/10 06:37:21;;;;;;;;;;;;;;;-144.99;81.97;52311.53;5059382;28;20426;-62
2021/10/10 06:39:47;;;;;;;;;;;;;;;-144.99;81.60;52350.25;5064189;28;20439;-62
2021/10/10 06:42:15;;;;;;;;;;;;;;;-144.99;81.08;52325.81;5061225;28;20389;-64
2021/10/10 06:44:43;;;;;;;;;;;;;;;-144.99;80.19;52346.19;5060099;28;20024;-64
2021/10/10 06:47:09;;;;;;;;;;;;;;;-144.99;79.36;52348.22;5051366;28;19985;-62
2021/10/10 06:49:36;;;;;;;;;;;;;;;-144.99;78.82;52317.66;5059115;28;20220;-62
2021/10/10 06:52:02;;;;;;;;;;;;;;;-144.99;78.54;52315.59;5053237;28;20486;-63
2021/10/10 06:54:28;;;;;;;;;;;;;;;-144.99;77.96;52285.03;5057314;28;19977;-68
2021/10/10 06:56:55;;;;;;;;;;;;;;;-144.99;77.17;52311.53;5052113;28;19988;-67
2021/10/10 06:59:21;;;;;;;;;;;;;;;-144.99;77.01;52293.19;5058829;28;19977;-65
2021/10/10 07:01:49;;;;;;;;;;;;;;;-144.99;76.55;52283.00;5050282;28;20000;-67
2021/10/10 07:04:15;;;;;;;;;;;;;;;-144.99;76.77;52301.34;5061502;28;19973;-66
2021/10/10 07:06:41;;;;;;;;;;;;;;;-144.99;76.95;52313.56;5056056;28;19973;-65
2021/10/10 07:09:08;;;;;;;;;;;;;;;-144.99;75.58;52301.34;5049149;28;20305;-69
2021/10/10 07:11:34;;;;;;;;;;;;;;;-144.99;76.00;52293.19;5044418;28;19960;-65
2021/10/10 07:14:01;;;;;;;;;;;;;;;-144.99;76.34;52305.41;5053517;28;19977;-68
2021/10/10 07:16:30;;;;;;;;;;;;;;;-144.99;75.85;52301.34;5059295;28;19988;-66
2021/10/10 07:18:58;;;;;;;;;;;;;;;-144.99;76.17;52285.03;5051409;28;20032;-66
2021/10/10 07:21:38;;;;;;;;;;;;;;;-144.99;76.59;52321.72;5051257;28;20314;-66
2021/10/10 07:26:49;;;;;;;;;;;;;;;-144.99;75.67;52305.41;5058796;28;20000;-66
2021/10/10 07:29:17;;;;;;;;;;;;;;;-144.99;75.46;52333.94;5057582;28;20334;-68
2021/10/10 07:31:43;;;;;;;;;;;;;;;-144.99;75.72;52240.19;5058308;28;20009;-67
2021/10/10 07:34:11;;;;;;;;;;;;;;;-144.99;73.54;52293.19;5046217;28;19973;-66
2021/10/10 07:36:38;;;;;;;;;;;;;;;-144.99;69.40;52295.22;5052096;28;19989;-68
2021/10/10 07:39:04;;;;;;;;;;;;;;;-144.99;69.45;52297.25;5066134;28;19973;-67
2021/10/10 07:41:35;;;;;;;;;;;;;;;-144.99;70.63;52301.34;5058136;28;20018;-69
2021/10/10 07:44:04;;;;;;;;;;;;;;;-144.99;68.41;52232.03;5045534;28;19981;-67
2021/10/10 07:46:35;;;;;;;;;;;;;;;-144.99;66.61;52285.03;5057216;28;20395;-66
2021/10/10 07:49:01;;;;;;;;;;;;;;;-144.99;66.77;52289.13;5051381;28;19973;-67
2021/10/10 07:51:30;;;;;;;;;;;;;;;-144.99;65.79;52254.47;5061923;28;19992;-66
2021/10/10 07:53:57;;;;;;;;;;;;;;;-144.99;66.99;52260.56;5060183;28;20008;-66
2021/10/10 07:56:23;;;;;;;;;;;;;;;-144.99;65.08;52268.72;5062059;28;19992;-68
2021/10/10 07:58:50;;;;;;;;;;;;;;;-144.99;64.38;52280.97;5060335;28;19984;-71
2021/10/10 08:01:17;;;;;;;;;;;;;;;-144.99;63.40;52268.72;5058194;28;19988;-67
2021/10/10 08:03:43;;;;;;;;;;;;;;;-144.99;63.11;52272.81;5055532;28;20117;-68
2021/10/10 08:06:10;;;;;;;;;;;;;;;-144.99;62.31;52299.31;5061116;28;19981;-68
2021/10/10 08:08:38;;;;;;;;;;;;;;;-144.99;62.53;52289.13;5058761;28;19980;-69
2021/10/10 08:11:04;;;;;;;;;;;;;;;-144.99;62.08;52319.69;5050385;28;19981;-71
2021/10/10 08:13:31;;;;;;;;;;;;;;;-144.99;61.69;52289.13;5058501;28;19973;-67
2021/10/10 08:15:57;;;;;;;;;;;;;;;-144.99;62.26;52297.25;5055733;28;19997;-69
2021/10/10 08:18:24;;;;;;;;;;;;;;;-144.99;61.38;52262.63;5057792;28;20529;-67
2021/10/10 08:20:50;;;;;;;;;;;;;;;-144.99;61.39;52272.81;5051303;28;20065;-70
2021/10/10 08:23:17;;;;;;;;;;;;;;;-144.99;61.45;52276.88;5059972;28;19995;-68
2021/10/10 08:25:45;;;;;;;;;;;;;;;-144.99;59.72;52244.28;5053863;28;20450;-67
2021/10/10 08:28:11;;;;;;;;;;;;;;;-144.99;59.58;52250.38;5045650;28;19974;-67
2021/10/10 08:30:40;;;;;;;;;;;;;;;-144.99;59.60;52264.66;5055257;28;20319;-68
2021/10/10 08:33:07;;;;;;;;;;;;;;;-144.99;60.28;52321.72;5058315;28;19969;-65
2021/10/10 08:35:33;;;;;;;;;;;;;;;-144.99;58.36;52276.88;5042133;28;19983;-66
2021/10/10 08:37:59;;;;;;;;;;;;;;;-144.99;57.75;52248.34;4345787;28;10000837;-63
2021/10/10 08:40:26;;;;;;;;;;;;;;;-144.99;57.50;52227.97;5046706;28;19992;-62
2021/10/10 08:42:58;;;;;;;;;;;;;;;-144.99;54.83;52244.28;5047472;28;20361;-63
2021/10/10 08:45:29;;;;;;;;;;;;;;;-144.99;55.48;52256.50;5043684;28;19983;-63
2021/10/10 08:47:55;;;;;;;;;;;;;;;-144.99;55.68;52248.34;5047113;28;19977;-62
2021/10/10 08:50:23;;;;;;;;;;;;;;;-144.99;54.41;52248.34;5047767;28;19981;-63
2021/10/10 08:52:52;;;;;;;;;;;;;;;-144.99;54.29;52232.03;5043894;28;20246;-63
2021/10/10 08:55:18;;;;;;;;;;;;;;;-144.99;54.35;52199.44;5048003;28;20064;-62
2021/10/10 08:57:46;;;;;;;;;;;;;;;-144.99;53.78;52248.34;5039195;28;19997;-62
2021/10/10 09:00:16;;;;;;;;;;;;;;;-144.99;55.03;52252.44;5042073;28;19977;-62
2021/10/10 09:02:46;;;;;;;;;;;;;;;-144.99;55.67;52230.00;5041885;28;20039;-62
2021/10/10 09:05:13;;;;;;;;;;;;;;;-144.99;57.00;52256.50;5040643;28;20512;-62
2021/10/10 09:07:39;;;;;;;;;;;;;;;-144.99;56.94;52276.88;5042115;28;19977;-62
2021/10/10 09:10:27;;;;;;;;;;;;;;;-144.99;58.00;52301.34;5038654;28;19982;-62
2021/10/10 09:13:03;;;;;;;;;;;;;;;-144.99;57.28;52276.88;5037225;28;20416;-62
2021/10/10 09:15:31;;;;;;;;;;;;;;;-144.99;57.67;52291.16;5044694;28;19973;-62
2021/10/10 09:17:59;;;;;;;;;;;;;;;-144.99;57.73;52293.19;5041658;28;19988;-63
2021/10/10 09:20:26;;;;;;;;;;;;;;;-144.99;58.09;52252.44;5037203;28;19973;-62
2021/10/10 09:22:52;;;;;;;;;;;;;;;-144.99;58.05;52309.50;5040433;28;20260;-62
2021/10/10 09:25:18;;;;;;;;;;;;;;;-144.99;58.58;52289.13;5047687;28;20004;-62
2021/10/10 09:27:45;;;;;;;;;;;;;;;-144.99;59.35;52327.84;5037461;28;19981;-61
2021/10/10 09:30:11;;;;;;;;;;;;;;;-144.99;60.73;52280.97;5042498;28;19977;-61
2021/10/10 09:32:42;;;;;;;;;;;;;;;-144.99;60.88;52354.34;5039754;28;20430;-60
2021/10/10 09:35:09;;;;;;;;;;;;;;;-144.99;59.53;52297.25;5040682;28;20453;-60
2021/10/10 09:37:39;;;;;;;;;;;;;;;-144.99;59.90;52293.19;5037109;28;19997;-60
2021/10/10 09:40:09;;;;;;;;;;;;;;;-144.99;60.30;52299.31;5039116;28;19988;-63
2021/10/10 09:42:38;;;;;;;;;;;;;;;-144.99;58.68;52272.81;5039962;28;19993;-63
2021/10/10 09:45:15;;;;;;;;;;;;;;;-144.99;58.84;52317.66;5042483;28;19973;-63
2021/10/10 09:47:51;;;;;;;;;;;;;;;-144.99;58.24;52276.88;5040402;28;20071;-64
2021/10/10 09:50:17;;;;;;;;;;;;;;;-144.99;57.96;52305.41;5039932;28;20060;-64
2021/10/10 09:52:43;;;;;;;;;;;;;;;-144.99;57.83;52305.41;5040481;28;19993;-63
2021/10/10 09:55:11;;;;;;;;;;;;;;;-144.99;57.63;52305.41;5043485;28;19977;-64
2021/10/10 09:57:45;;;;;;;;;;;;;;;-144.99;56.98;52266.69;5044781;28;19993;-64
2021/10/10 10:00:18;;;;;;;;;;;;;;;-144.99;55.87;52248.34;5041491;28;19981;-64
2021/10/10 10:02:46;;;;;;;;;;;;;;;-144.99;55.01;52276.88;5040665;28;19989;-64
2021/10/10 10:05:23;;;;;;;;;;;;;;;-144.99;54.30;52262.63;5042365;28;20482;-63
2021/10/10 10:07:50;;;;;;;;;;;;;;;-144.99;53.67;52227.97;5040456;28;19993;-63
2021/10/10 10:10:16;;;;;;;;;;;;;;;-144.99;52.10;52189.25;5041569;28;19996;-63
2021/10/10 10:12:43;;;;;;;;;;;;;;;-144.99;51.01;52179.06;5040991;28;20028;-64
2021/10/10 10:15:11;;;;;;;;;;;;;;;-144.99;48.91;52195.34;5043065;28;19984;-63
2021/10/10 10:17:37;;;;;;;;;;;;;;;-144.99;48.09;52138.28;5041792;28;19989;-65
2021/10/10 10:20:04;;;;;;;;;;;;;;;-144.99;47.66;52162.75;5039114;28;19989;-67
2021/10/10 10:22:34;;;;;;;;;;;;;;;-144.99;47.13;52132.19;5038426;28;19989;-64
2021/10/10 10:25:00;;;;;;;;;;;;;;;-144.99;46.91;52154.59;5036035;28;20423;-64
2021/10/10 10:27:27;;;;;;;;;;;;;;;-144.99;46.55;52174.97;5038342;28;19981;-64
2021/10/10 10:29:54;;;;;;;;;;;;;;;-144.99;46.15;52191.28;5043759;28;19982;-64
2021/10/10 10:32:22;;;;;;;;;;;;;;;-144.99;46.57;52179.06;5040646;28;19993;-64
2021/10/10 10:34:59;;;;;;;;;;;;;;;-144.99;46.60;52219.81;5037363;28;19981;-62
2021/10/10 10:37:40;;;;;;;;;;;;;;;-144.99;47.37;52248.34;5036596;28;19993;-62
2021/10/10 10:40:27;;;;;;;;;;;;;;;-144.99;47.69;52238.16;5041051;28;19982;-57
2021/10/10 10:42:55;;;;;;;;;;;;;;;-144.99;46.84;52183.13;5037063;28;20036;-64
2021/10/10 10:45:22;;;;;;;;;;;;;;;-144.99;46.46;52179.06;5038580;28;19977;-64
2021/10/10 10:47:49;;;;;;;;;;;;;;;-144.99;46.34;52227.97;5040584;28;19988;-64
2021/10/10 10:50:16;;;;;;;;;;;;;;;-144.99;47.63;52221.84;5041588;28;19981;-64
2021/10/10 10:52:43;;;;;;;;;;;;;;;-144.99;47.69;52227.97;5038656;28;20004;-64
2021/10/10 10:55:18;;;;;;;;;;;;;;;-144.99;46.58;52191.28;5040071;28;20193;-63
2021/10/10 10:57:50;;;;;;;;;;;;;;;-144.99;47.15;52236.13;5042613;28;20500;-63
2021/10/10 11:00:21;;;;;;;;;;;;;;;-144.99;48.42;52264.66;5042935;28;20505;-63
2021/10/10 11:02:51;;;;;;;;;;;;;;;-144.99;48.01;52270.78;5040334;28;20001;-65
2021/10/10 11:05:35;;;;;;;;;;;;;;;-144.99;48.28;52227.97;5042676;28;19988;-64
2021/10/10 11:08:02;;;;;;;;;;;;;;;-144.99;48.33;52240.19;5041126;28;19973;-65
2021/10/10 11:10:30;;;;;;;;;;;;;;;-144.99;48.91;52260.56;5043799;28;19984;-63
2021/10/10 11:12:57;;;;;;;;;;;;;;;-144.99;49.22;52258.53;5043046;28;20131;-63
2021/10/10 11:15:24;;;;;;;;;;;;;;;-144.99;49.76;52252.44;5044331;28;20023;-63
2021/10/10 11:17:54;;;;;;;;;;;;;;;-144.99;50.45;52272.81;5042602;28;19985;-63
2021/10/10 11:20:20;;;;;;;;;;;;;;;-144.99;51.43;52260.56;5043630;28;20409;-63
2021/10/10 11:22:47;;;;;;;;;;;;;;;-144.99;52.46;52262.63;5046972;28;20270;-64
2021/10/10 11:25:13;;;;;;;;;;;;;;;-144.99;52.94;52260.56;5050348;28;19996;-64
2021/10/10 11:27:41;;;;;;;;;;;;;;;-144.99;52.53;52276.88;5048903;28;19981;-63
2021/10/10 11:30:08;;;;;;;;;;;;;;;-144.99;52.45;52278.91;5048211;28;20481;-63
2021/10/10 11:32:49;;;;;;;;;;;;;;;-144.99;51.80;52232.03;5041406;28;19997;-63
2021/10/10 11:35:22;;;;;;;;;;;;;;;-144.99;51.36;52213.69;5043545;28;19977;-65
2021/10/10 11:37:59;;;;;;;;;;;;;;;-144.99;50.62;52162.75;5039300;28;19997;-64
2021/10/10 11:40:25;;;;;;;;;;;;;;;-144.99;49.45;52148.47;5044954;28;20011;-62
2021/10/10 11:42:55;;;;;;;;;;;;;;;-144.99;47.30;52105.69;5046631;28;19993;-64
2021/10/10 11:45:22;;;;;;;;;;;;;;;-144.99;45.06;52007.84;5044832;28;20382;-65
2021/10/10 11:47:49;;;;;;;;;;;;;;;-144.99;42.92;52011.94;5041560;28;19981;-64
2021/10/10 11:50:16;;;;;;;;;;;;;;;-144.99;40.86;51979.31;5040981;28;19980;-63
2021/10/10 11:52:45;;;;;;;;;;;;;;;-144.99;39.83;51971.16;5043955;28;19993;-64
2021/10/10 11:55:20;;;;;;;;;;;;;;;-144.99;38.64;51965.06;5042667;28;20173;-63
2021/10/10 11:57:47;;;;;;;;;;;;;;;-144.99;38.59;51965.06;5043105;28;20174;-65
2021/10/10 12:00:18;;;;;;;;;;;;;;;-144.99;38.78;52005.81;5047545;28;20436;-64
2021/10/10 12:02:45;;;;;;;;;;;;;;;-144.99;37.49;51983.41;5046392;28;20492;-64
2021/10/10 12:05:13;;;;;;;;;;;;;;;-144.99;37.07;51971.16;5039173;28;19978;-64
2021/10/10 12:07:41;;;;;;;;;;;;;;;-144.99;35.69;51914.09;5035414;28;20460;-64
2021/10/10 12:10:09;;;;;;;;;;;;;;;-144.99;34.98;51899.84;5047598;28;20410;-65
2021/10/10 12:12:36;;;;;;;;;;;;;;;-144.99;33.60;51903.91;5042918;28;20005;-65
2021/10/10 12:15:02;;;;;;;;;;;;;;;-144.99;32.98;51897.81;5047048;28;19992;-65
2021/10/10 12:17:32;;;;;;;;;;;;;;;-144.99;33.56;51954.88;5046189;28;19993;-65
2021/10/10 12:19:59;;;;;;;;;;;;;;;-144.99;33.22;51916.16;5047228;28;19981;-64
2021/10/10 12:22:26;;;;;;;;;;;;;;;-144.99;33.15;51905.97;5046188;28;20079;-63
2021/10/10 12:24:52;;;;;;;;;;;;;;;-144.99;33.24;51950.78;5043557;28;20431;-64
2021/10/10 12:27:29;;;;;;;;;;;;;;;-144.99;33.46;51983.41;5039964;28;19984;-64
2021/10/10 12:29:55;;;;;;;;;;;;;;;-144.99;32.96;51930.41;5040353;28;19984;-64
2021/10/10 12:32:23;;;;;;;;;;;;;;;-144.99;32.90;51910.03;5045821;28;19997;-64